ADDS METAR Data INFO
IDs: Format: Raw Decoded Include TAF

Data at: 1132 UTC 17 Jul 2018

KOWI 171115Z AUTO 00000KT 10SM FEW120 21/20 A3003 RMK AO2 PWINO
KOWI 171055Z AUTO 00000KT 10SM CLR 21/20 A3003 RMK AO2 PWINO
KOWI 171035Z AUTO 00000KT 10SM CLR 21/20 A3002 RMK AO2 PWINO
KOWI 171015Z AUTO 00000KT 9SM CLR 21/20 A3002 RMK AO2 PWINO
KOWI 170955Z AUTO 18003KT 10SM FEW047 21/20 A3002 RMK AO2 PWINO
KOWI 170935Z AUTO 06003KT 10SM FEW047 21/20 A3002 RMK AO2 PWINO
KOWI 170915Z AUTO 00000KT 10SM CLR 22/21 A3002 RMK AO2 PWINO
KOWI 170855Z AUTO 00000KT 10SM CLR 22/21 A3002 RMK AO2 PWINO
KOWI 170835Z AUTO 00000KT 10SM CLR 22/21 A3002 RMK AO2 PWINO
KOWI 170815Z AUTO 00000KT 10SM CLR 22/21 A3002 RMK AO2 PWINO
KOWI 170755Z AUTO 00000KT 10SM CLR 23/21 A3002 RMK AO2 PWINO
KOWI 170735Z AUTO 00000KT 10SM CLR 22/21 A3001 RMK AO2 PWINO
KOWI 170715Z AUTO 00000KT 9SM CLR 23/21 A3002 RMK AO2 PWINO
KOWI 170655Z AUTO 00000KT 9SM CLR 23/21 A3002 RMK AO2 PWINO
KOWI 170635Z AUTO 00000KT 10SM CLR 23/21 A3002 RMK AO2 PWINO
KOWI 170615Z AUTO 16004KT 10SM FEW046 23/21 A3003 RMK AO2 LTG DSNT W PWINO
KOWI 170555Z AUTO 00000KT 10SM CLR 23/21 A3003 RMK AO2 PWINO
KOWI 170535Z AUTO 00000KT 10SM CLR 24/21 A3003 RMK AO2 PWINO
KOWI 170515Z AUTO 00000KT 10SM CLR 24/21 A3003 RMK AO2 PWINO
KOWI 170455Z AUTO 00000KT 10SM CLR 24/21 A3002 RMK AO2 PWINO
KOWI 170435Z AUTO 00000KT 10SM FEW060 25/21 A3003 RMK AO2 PWINO
KOWI 170415Z AUTO 01006KT 10SM SCT060 25/21 A3003 RMK AO2 PWINO
KOWI 170355Z AUTO 00000KT 10SM CLR 27/21 A3002 RMK AO2 PWINO
KOWI 170335Z AUTO 00000KT 10SM CLR 26/21 A3002 RMK AO2 PWINO
KOWI 170315Z AUTO 28003KT 10SM CLR 26/21 A3002 RMK AO2 PWINO
KOWI 170255Z AUTO 00000KT 10SM FEW060 28/21 A3001 RMK AO2 PWINO
KOWI 170235Z AUTO 13003KT 10SM SCT060 28/21 A3000 RMK AO2 PWINO
KOWI 170215Z AUTO 11004KT 10SM CLR 30/21 A2999 RMK AO2 PWINO
KOWI 170155Z AUTO 11003KT 10SM CLR 29/20 A2999 RMK AO2 PWINO
KOWI 170135Z AUTO 13005KT 10SM CLR 30/20 A2998 RMK AO2 PWINO
KOWI 170115Z AUTO 07003KT 9SM CLR 32/19 A2998 RMK AO2 PWINO
KOWI 170055Z AUTO 06005KT 10SM CLR 33/19 A2997 RMK AO2 PWINO
KOWI 170035Z AUTO 05005KT 9SM CLR 33/18 A2998 RMK AO2 PWINO
KOWI 170015Z AUTO 05006KT 9SM CLR 34/19 A2998 RMK AO2 PWINO
KOWI 162355Z AUTO 03009KT 9SM FEW065 34/19 A2998 RMK AO2 PWINO
KOWI 162335Z AUTO 01008KT 10SM FEW065 34/19 A2998 RMK AO2 PWINO
KOWI 162315Z AUTO 01008KT 9SM CLR 35/19 A2997 RMK AO2 PWINO
KOWI 162255Z AUTO 02009KT 9SM FEW060 35/20 A2997 RMK AO2 PWINO
KOWI 162235Z AUTO 06006KT 9SM CLR 35/20 A2997 RMK AO2 PWINO
KOWI 162215Z AUTO 03007KT 9SM SCT060 35/20 A2996 RMK AO2 PWINO
KOWI 162155Z AUTO 09004KT 9SM BKN060 35/19 A2997 RMK AO2 PWINO
KOWI 162135Z AUTO 09007KT 9SM FEW060 34/19 A2998 RMK AO2 PWINO
KOWI 162115Z AUTO VRB03KT 9SM CLR 34/19 A2998 RMK AO2 PWINO
KOWI 162055Z AUTO VRB04KT 9SM CLR 34/18 A2999 RMK AO2 PWINO
KOWI 162035Z AUTO VRB03G11KT 9SM CLR 34/18 A2999 RMK AO2 PWINO
KOWI 162015Z AUTO 00000KT 10SM CLR 34/17 A3000 RMK AO2 PWINO
KOWI 161955Z AUTO 04005G11KT 10SM CLR 33/18 A3001 RMK AO2 PWINO
KOWI 161935Z AUTO 01009KT 9SM CLR 33/18 A3002 RMK AO2 PWINO
KOWI 161915Z AUTO 00000KT 10SM CLR 33/18 A3003 RMK AO2 PWINO
KOWI 161855Z AUTO 00000G10KT 9SM CLR 33/17 A3003 RMK AO2 PWINO
KOWI 161835Z AUTO 02006G11KT 10SM CLR 33/18 A3004 RMK AO2 PWINO
KOWI 161815Z AUTO 04010KT 9SM CLR 33/18 A3003 RMK AO2 PWINO
KOWI 161755Z AUTO 36008KT 330V030 10SM FEW120 33/17 A3004 RMK AO2 PWINO
KOWI 161735Z AUTO 04007KT 360V070 9SM FEW120 32/18 A3004 RMK AO2 PWINO
KOWI 161715Z AUTO VRB04KT 10SM CLR 32/19 A3004 RMK AO2 PWINO
KOWI 161655Z AUTO 00000KT 10SM CLR 31/19 A3005 RMK AO2 PWINO
KOWI 161635Z AUTO 09003KT 9SM FEW060 30/19 A3005 RMK AO2 PWINO
KOWI 161615Z AUTO VRB03KT 9SM CLR 30/20 A3006 RMK AO2 PWINO
KOWI 161555Z AUTO 36005KT 9SM FEW100 30/21 A3006 RMK AO2 PWINO
KOWI 161535Z AUTO 00000KT 10SM CLR 30/21 A3006 RMK AO2 PWINO
KOWI 161515Z AUTO VRB05KT 9SM CLR 30/21 A3006 RMK AO2 PWINO
KOWI 161455Z AUTO 00000KT 9SM CLR 29/20 A3006 RMK AO2 PWINO
KOWI 161435Z AUTO 03007KT 9SM CLR 28/21 A3006 RMK AO2 PWINO
KOWI 161415Z AUTO 04005KT 9SM CLR 28/21 A3005 RMK AO2 PWINO
KOWI 161355Z AUTO 04005KT 10SM CLR 27/21 A3005 RMK AO2 LTG DSNT SW PWINO
KOWI 161335Z AUTO 06005KT 9SM FEW120 26/20 A3004 RMK AO2 PWINO
KOWI 161315Z AUTO 01006G11KT 10SM SCT120 26/20 A3004 RMK AO2 LTG DSNT SW PWINO
KOWI 161255Z AUTO 33010KT 9SM FEW049 FEW060 SCT120 26/21 A3004 RMK AO2 PWINO
KOWI 161235Z AUTO 32010KT 9SM SCT049 SCT060 25/21 A3004 RMK AO2 LTG DSNT SW AND W PWINO
KOWI 161215Z AUTO 32003KT 9SM CLR 24/22 A3001 RMK AO2 PWINO
KOWI 161155Z AUTO 31003KT 9SM CLR 23/22 A3001 RMK AO2 PWINO
KOWI 161135Z AUTO 01003KT 9SM CLR 22/21 A3000 RMK AO2 PWINO
KOWI 161115Z AUTO 00000KT 10SM VCTS CLR 22/21 A3000 RMK AO2 LTG DSNT NW PWINO
KOWI 161055Z AUTO 00000KT 9SM FEW042 22/21 A3000 RMK AO2 PWINO
KOWI 161035Z AUTO 00000KT 10SM BKN044 22/21 A3000 RMK AO2 PWINO
KOWI 161015Z AUTO 00000KT 10SM BKN045 22/21 A3000 RMK AO2 PWINO
KOWI 160955Z AUTO 00000KT 10SM SCT044 BKN049 23/22 A3000 RMK AO2 PWINO
KOWI 160935Z AUTO 00000KT 10SM BKN048 BKN055 23/22 A3000 RMK AO2 PWINO
KOWI 160915Z AUTO 00000KT 10SM BKN050 22/21 A2999 RMK AO2 PWINO
KOWI 160855Z AUTO 03003KT 10SM BKN050 BKN055 23/22 A2998 RMK AO2 PWINO
KOWI 160835Z AUTO 02004KT 9SM BKN050 BKN055 23/22 A2999 RMK AO2 PWINO
KOWI 160815Z AUTO 00000KT 10SM BKN050 23/22 A2999 RMK AO2 PWINO
KOWI 160755Z AUTO 00000KT 10SM BKN050 23/22 A2999 RMK AO2 PWINO
KOWI 160735Z AUTO 00000KT 10SM SCT050 23/22 A2999 RMK AO2 PWINO
KOWI 160715Z AUTO 00000KT 10SM SCT055 24/22 A2999 RMK AO2 PWINO
KOWI 160655Z AUTO 00000KT 10SM BKN055 24/22 A2999 RMK AO2 PWINO
KOWI 160635Z AUTO 00000KT 10SM FEW055 SCT120 24/23 A3000 RMK AO2 PWINO
KOWI 160610Z AUTO 00000KT 10SM OVC120 24/23 A3000 RMK AO2 PWINO
KOWI 160555Z AUTO 00000KT 10SM OVC120 24/23 A3000 RMK AO2 PWINO
KOWI 160535Z AUTO 00000KT 10SM OVC120 24/23 A3000 RMK AO2 PWINO
KOWI 160515Z AUTO 00000KT 10SM BKN120 25/23 A3000 RMK AO2 PWINO
KOWI 160455Z AUTO 00000KT 10SM CLR 25/22 A3000 RMK AO2 PWINO
KOWI 160435Z AUTO 00000KT 10SM CLR 26/22 A3000 RMK AO2 PWINO
KOWI 160415Z AUTO 00000KT 10SM CLR 25/22 A3001 RMK AO2 PWINO
KOWI 160355Z AUTO 00000KT 10SM FEW090 25/22 A3001 RMK AO2 PWINO
KOWI 160335Z AUTO 00000KT 10SM FEW100 25/22 A2999 RMK AO2 PWINO
KOWI 160315Z AUTO 14005KT 10SM SCT100 27/22 A2998 RMK AO2 PWINO
KOWI 160255Z AUTO 15006KT 10SM BKN100 27/22 A2997 RMK AO2 PWINO
KOWI 160235Z AUTO 00000KT 10SM SCT055 BKN100 29/21 A2997 RMK AO2 PWINO
KOWI 160215Z AUTO 00000KT 10SM SCT055 BKN065 BKN100 29/21 A2996 RMK AO2 PWINO
KOWI 160155Z AUTO 35005KT 10SM SCT055 BKN065 BKN100 29/21 A2995 RMK AO2 PWINO
KOWI 160135Z AUTO VRB04KT 10SM BKN055 30/22 A2995 RMK AO2 PWINO
KOWI 160115Z AUTO 23004KT 10SM SCT055 BKN085 30/22 A2995 RMK AO2 PWINO
KOWI 160055Z AUTO 00000KT 9SM BKN080 31/22 A2994 RMK AO2 PWINO
KOWI 160035Z AUTO 08005KT 10SM CLR 32/22 A2994 RMK AO2 PWINO
KOWI 160015Z AUTO 07006KT 9SM FEW060 32/21 A2994 RMK AO2 PWINO
KOWI 152355Z AUTO 09007KT 9SM SCT060 32/22 A2994 RMK AO2 PWINO
KOWI 152335Z AUTO 10006KT 9SM BKN060 BKN085 33/21 A2994 RMK AO2 LTG DSNT SW PWINO